createdAt,value
2022-10-26T00:00:45.766Z,11.25
2022-10-26T00:03:12.407Z,11.23
2022-10-26T00:05:38.990Z,11.34
2022-10-26T00:08:05.841Z,11.32
2022-10-26T00:10:35.255Z,11.53
2022-10-26T00:13:01.891Z,11.16
2022-10-26T00:15:28.804Z,11.52
2022-10-26T00:17:55.367Z,11.43
2022-10-26T00:20:21.790Z,11.40
2022-10-26T00:22:48.216Z,11.36
2022-10-26T00:25:14.860Z,11.49
2022-10-26T00:27:41.221Z,11.55
2022-10-26T00:30:08.256Z,11.53
2022-10-26T00:32:34.912Z,11.37
2022-10-26T00:35:10.568Z,11.29
2022-10-26T00:37:48.232Z,11.43
2022-10-26T00:40:15.009Z,11.36
2022-10-26T00:42:41.380Z,11.26
2022-10-26T00:45:20.990Z,11.36
2022-10-26T00:47:50.956Z,11.35
2022-10-26T00:50:34.704Z,11.36
2022-10-26T00:53:04.569Z,11.21
2022-10-26T00:55:36.117Z,11.45
2022-10-26T00:58:05.270Z,11.45
2022-10-26T01:00:31.858Z,11.49
2022-10-26T01:03:01.679Z,11.25
2022-10-26T01:05:29.021Z,11.20
2022-10-26T01:07:55.571Z,11.14
2022-10-26T01:10:22.735Z,11.49
2022-10-26T01:12:49.298Z,11.15
2022-10-26T01:15:16.180Z,11.58
2022-10-26T01:17:54.819Z,11.52
2022-10-26T01:20:33.500Z,11.57
2022-10-26T01:23:11.984Z,11.47
2022-10-26T01:25:51.816Z,11.42
2022-10-26T01:28:37.606Z,11.38
2022-10-26T01:31:08.845Z,11.35
2022-10-26T01:33:42.751Z,11.40
2022-10-26T01:36:40.413Z,11.42
2022-10-26T01:39:40.218Z,11.49
2022-10-26T01:42:09.805Z,11.55
2022-10-26T01:44:43.132Z,11.48
2022-10-26T01:47:15.406Z,11.60
2022-10-26T01:49:47.085Z,11.20
2022-10-26T01:52:13.575Z,11.47
2022-10-26T01:54:39.991Z,11.57
2022-10-26T01:57:09.899Z,11.50
2022-10-26T01:59:42.416Z,11.54
2022-10-26T02:02:20.961Z,11.57
2022-10-26T02:04:50.265Z,11.53
2022-10-26T02:07:27.639Z,11.26
2022-10-26T02:10:05.018Z,11.54
2022-10-26T02:12:59.360Z,11.50
2022-10-26T02:15:53.515Z,11.60
2022-10-26T02:18:51.012Z,11.60
2022-10-26T02:21:24.507Z,11.62
2022-10-26T02:23:52.554Z,11.58
2022-10-26T02:26:24.168Z,11.69
2022-10-26T02:28:53.847Z,11.44
2022-10-26T02:31:21.011Z,11.67
2022-10-26T02:33:51.637Z,11.75
2022-10-26T02:36:24.621Z,11.71
2022-10-26T02:38:53.068Z,11.80
2022-10-26T02:41:21.698Z,11.71
2022-10-26T02:43:55.492Z,11.68
2022-10-26T02:46:25.283Z,11.32
2022-10-26T02:48:51.750Z,11.65
2022-10-26T02:51:25.069Z,11.33
2022-10-26T02:53:59.137Z,11.30
2022-10-26T02:56:36.520Z,11.49
2022-10-26T02:59:07.914Z,11.70
2022-10-26T03:01:35.522Z,11.70
2022-10-26T03:04:02.281Z,11.71
2022-10-26T03:06:28.672Z,11.69
2022-10-26T03:08:55.151Z,11.41
2022-10-26T03:11:21.591Z,11.71
2022-10-26T03:13:48.018Z,11.72
2022-10-26T03:16:14.455Z,11.65
2022-10-26T03:18:40.825Z,11.22
2022-10-26T03:21:07.249Z,11.41
2022-10-26T03:23:33.616Z,11.74
2022-10-26T03:26:00.234Z,11.71
2022-10-26T03:28:27.212Z,11.69
2022-10-26T03:30:53.644Z,11.75
2022-10-26T03:33:21.548Z,11.80
2022-10-26T03:35:59.757Z,11.79
2022-10-26T03:38:26.256Z,11.82
2022-10-26T03:40:52.770Z,11.55
2022-10-26T03:43:19.296Z,11.88
2022-10-26T03:45:45.747Z,11.89
2022-10-26T03:48:12.572Z,11.81
2022-10-26T03:50:39.086Z,11.89
2022-10-26T03:53:06.130Z,11.48
2022-10-26T03:55:32.673Z,11.81
2022-10-26T03:57:59.071Z,11.85
2022-10-26T04:00:25.592Z,11.69
2022-10-26T04:02:59.833Z,11.71
2022-10-26T04:05:28.351Z,12.00
2022-10-26T04:08:00.398Z,12.00
2022-10-26T04:10:27.946Z,11.69
2022-10-26T04:12:55.237Z,11.99
2022-10-26T04:15:22.315Z,12.08
2022-10-26T04:17:49.038Z,12.05
2022-10-26T04:20:15.776Z,12.11
2022-10-26T04:22:42.136Z,11.84
2022-10-26T04:25:08.850Z,12.14
2022-10-26T04:27:35.242Z,12.14
2022-10-26T04:30:01.656Z,12.21
2022-10-26T04:32:28.035Z,12.19
2022-10-26T04:34:54.391Z,11.86
2022-10-26T04:37:20.761Z,11.88
2022-10-26T04:39:47.149Z,12.21
2022-10-26T04:42:13.565Z,11.89
2022-10-26T04:44:39.949Z,11.82
2022-10-26T04:47:06.321Z,12.22
2022-10-26T04:49:32.701Z,12.20
2022-10-26T04:51:59.093Z,12.14
2022-10-26T04:54:25.472Z,12.16
2022-10-26T04:56:51.891Z,11.85
2022-10-26T04:59:18.309Z,11.82
2022-10-26T05:01:44.803Z,12.06
2022-10-26T05:04:11.411Z,11.89
2022-10-26T05:06:37.797Z,12.14
2022-10-26T05:09:04.543Z,11.75
2022-10-26T05:11:30.987Z,12.05
2022-10-26T05:13:57.342Z,11.79
2022-10-26T05:16:23.768Z,12.19
2022-10-26T05:18:50.237Z,12.13
2022-10-26T05:21:17.510Z,12.00
2022-10-26T05:23:43.897Z,12.29
2022-10-26T05:26:10.269Z,12.38
2022-10-26T05:28:36.676Z,12.35
2022-10-26T05:31:03.083Z,12.43
2022-10-26T05:33:29.465Z,12.48
2022-10-26T05:35:55.898Z,12.50
2022-10-26T05:38:22.388Z,12.50
2022-10-26T05:40:53.270Z,12.52
2022-10-26T05:43:23.700Z,12.15
2022-10-26T05:45:51.162Z,12.54
2022-10-26T05:48:17.612Z,12.31
2022-10-26T05:50:44.939Z,12.23
2022-10-26T05:53:11.527Z,12.29
2022-10-26T05:55:38.393Z,12.64
2022-10-26T05:58:09.426Z,12.63
2022-10-26T06:00:37.004Z,12.49
2022-10-26T06:03:21.895Z,12.57
2022-10-26T06:05:52.769Z,12.30
2022-10-26T06:08:20.467Z,12.73
2022-10-26T06:10:47.696Z,12.72
2022-10-26T06:13:14.690Z,12.49
2022-10-26T06:16:02.697Z,12.72
2022-10-26T06:18:34.932Z,12.73
2022-10-26T06:21:28.426Z,12.87
2022-10-26T06:24:24.426Z,12.89
2022-10-26T06:27:28.309Z,12.85
2022-10-26T06:30:09.424Z,12.55
2022-10-26T06:32:36.532Z,12.78
2022-10-26T06:35:31.714Z,12.75
2022-10-26T06:38:02.149Z,12.61
2022-10-26T06:40:32.167Z,12.64
2022-10-26T06:42:59.935Z,12.72
2022-10-26T06:45:26.728Z,12.31
2022-10-26T06:48:16.629Z,12.63
2022-10-26T06:51:03.418Z,12.85
2022-10-26T06:53:37.419Z,12.81
2022-10-26T06:56:04.336Z,12.55
2022-10-26T06:58:34.863Z,12.80
2022-10-26T07:01:01.934Z,12.92
2022-10-26T07:03:28.359Z,12.92
2022-10-26T07:05:54.755Z,12.89
2022-10-26T07:08:21.235Z,12.90
2022-10-26T07:10:47.681Z,12.92
2022-10-26T07:13:14.278Z,12.93
2022-10-26T07:15:40.755Z,12.60
2022-10-26T07:18:07.909Z,13.12
2022-10-26T07:20:39.397Z,13.14
2022-10-26T07:23:07.091Z,13.04
2022-10-26T07:25:34.878Z,12.85
2022-10-26T07:28:01.981Z,12.91
2022-10-26T07:30:30.247Z,12.96
2022-10-26T07:33:23.186Z,13.38
2022-10-26T07:35:49.723Z,13.18
2022-10-26T07:38:16.098Z,13.56
2022-10-26T07:40:42.522Z,13.63
2022-10-26T07:43:08.927Z,13.65
2022-10-26T07:45:35.358Z,13.71
2022-10-26T07:48:01.762Z,13.34
2022-10-26T07:50:28.426Z,13.68
2022-10-26T07:52:54.789Z,13.80
2022-10-26T07:55:21.265Z,13.50
2022-10-26T07:57:51.011Z,13.95
2022-10-26T08:00:21.075Z,14.01
2022-10-26T08:02:47.527Z,14.12
2022-10-26T08:05:14.009Z,13.83
2022-10-26T08:07:41.950Z,14.31
2022-10-26T08:10:08.773Z,14.42
2022-10-26T08:12:35.263Z,14.13
2022-10-26T08:15:01.622Z,14.56
2022-10-26T08:17:29.149Z,14.47
2022-10-26T08:19:55.616Z,14.38
2022-10-26T08:22:22.063Z,14.68
2022-10-26T08:24:48.454Z,14.84
2022-10-26T08:27:15.034Z,14.96
2022-10-26T08:29:42.088Z,14.80
2022-10-26T08:32:08.610Z,14.82
2022-10-26T08:34:35.126Z,15.17
2022-10-26T08:37:01.601Z,14.95
2022-10-26T08:39:27.979Z,15.33
2022-10-26T08:42:19.410Z,15.42
2022-10-26T08:44:48.301Z,15.21
2022-10-26T08:47:24.821Z,15.61
2022-10-26T08:50:02.106Z,15.72
2022-10-26T08:52:56.204Z,15.59
2022-10-26T08:55:29.101Z,16.42
2022-10-26T08:57:56.407Z,16.77
2022-10-26T09:00:25.313Z,16.71
2022-10-26T09:02:53.053Z,16.62
2022-10-26T09:05:27.021Z,17.11
2022-10-26T09:08:22.522Z,16.86
2022-10-26T09:11:09.417Z,17.66
2022-10-26T09:13:40.878Z,17.20
2022-10-26T09:16:24.476Z,17.64
2022-10-26T09:19:01.846Z,17.16
2022-10-26T09:21:35.365Z,17.46
2022-10-26T09:24:25.655Z,17.39
2022-10-26T09:26:58.706Z,17.58
2022-10-26T09:29:36.092Z,17.89
2022-10-26T09:32:04.260Z,17.77
2022-10-26T09:34:48.452Z,18.14
2022-10-26T09:37:25.508Z,17.64
2022-10-26T09:40:08.335Z,17.91
2022-10-26T09:42:47.037Z,17.48
2022-10-26T09:45:20.311Z,16.78
2022-10-26T09:47:51.308Z,16.74
2022-10-26T09:50:36.174Z,17.46
2022-10-26T09:53:03.839Z,17.14
2022-10-26T09:55:33.143Z,16.81
2022-10-26T09:58:03.272Z,16.82
2022-10-26T10:00:30.484Z,16.59
2022-10-26T10:02:58.638Z,16.51
2022-10-26T10:05:49.720Z,16.69
2022-10-26T10:08:19.257Z,16.63
2022-10-26T10:11:01.935Z,16.76
2022-10-26T10:13:38.203Z,16.31
2022-10-26T10:16:10.340Z,16.73
2022-10-26T10:18:37.874Z,16.47
2022-10-26T10:21:05.264Z,16.43
2022-10-26T10:23:37.677Z,16.54
2022-10-26T10:26:07.440Z,16.77
2022-10-26T10:28:35.044Z,16.74
2022-10-26T10:31:05.339Z,16.65
2022-10-26T10:33:33.761Z,16.73
2022-10-26T10:36:00.992Z,16.50
2022-10-26T10:38:27.663Z,16.85
2022-10-26T10:40:57.854Z,17.09
2022-10-26T10:43:25.691Z,16.69
2022-10-26T10:45:57.177Z,16.89
2022-10-26T10:48:28.286Z,16.99
2022-10-26T10:50:58.504Z,17.00
2022-10-26T10:53:45.085Z,17.84
2022-10-26T10:56:47.291Z,18.12
2022-10-26T10:59:38.278Z,17.83
2022-10-26T11:02:13.988Z,18.09
2022-10-26T11:04:55.366Z,17.94
2022-10-26T11:07:24.102Z,17.94
2022-10-26T11:12:53.798Z,17.50
2022-10-26T11:15:24.727Z,17.90
2022-10-26T11:18:08.410Z,17.93
2022-10-26T11:20:42.976Z,17.98
2022-10-26T11:23:19.165Z,18.25
2022-10-26T11:26:00.621Z,18.23
2022-10-26T11:28:42.114Z,18.38
2022-10-26T11:31:16.280Z,18.00
2022-10-26T11:34:13.319Z,18.56
2022-10-26T11:36:44.194Z,18.56
2022-10-26T11:39:16.264Z,18.38
2022-10-26T11:41:47.179Z,18.42
2022-10-26T11:44:29.484Z,18.59
2022-10-26T11:47:02.389Z,18.29
2022-10-26T11:49:50.413Z,18.60
2022-10-26T11:52:24.967Z,18.46
2022-10-26T11:54:56.437Z,18.73
2022-10-26T11:57:25.662Z,18.78
2022-10-26T12:00:02.402Z,18.58
2022-10-26T12:02:28.892Z,18.36
2022-10-26T12:05:33.035Z,18.60
2022-10-26T12:08:06.237Z,18.56
2022-10-26T12:10:35.274Z,18.68
2022-10-26T12:13:24.890Z,18.66
2022-10-26T12:16:04.678Z,18.85
2022-10-26T12:18:54.985Z,18.80
2022-10-26T12:21:26.375Z,18.59
2022-10-26T12:23:54.343Z,18.66
2022-10-26T12:26:38.797Z,19.03
2022-10-26T12:29:05.170Z,19.02
2022-10-26T12:31:37.414Z,19.11
2022-10-26T12:34:10.275Z,19.00
2022-10-26T12:36:54.870Z,18.95
2022-10-26T12:39:35.677Z,19.19
2022-10-26T12:42:07.828Z,19.05
2022-10-26T12:44:45.358Z,19.00
2022-10-26T12:47:31.720Z,19.15
2022-10-26T12:49:59.191Z,19.04
2022-10-26T12:52:28.367Z,19.24
2022-10-26T12:55:07.335Z,19.03
2022-10-26T12:57:47.300Z,19.31
2022-10-26T13:00:17.718Z,19.93
2022-10-26T13:02:50.634Z,19.94
2022-10-26T13:05:29.255Z,19.97
2022-10-26T13:08:03.610Z,20.14
2022-10-26T13:10:30.389Z,20.99
2022-10-26T13:12:59.585Z,21.74
2022-10-26T13:15:39.235Z,21.13
2022-10-26T13:18:17.358Z,21.07
2022-10-26T13:21:07.933Z,20.98
2022-10-26T13:23:39.268Z,21.60
2022-10-26T13:26:11.551Z,21.13
2022-10-26T13:28:37.982Z,20.63
2022-10-26T13:31:11.164Z,20.30
2022-10-26T13:33:41.059Z,20.52
2022-10-26T13:36:18.184Z,20.20
2022-10-26T13:38:46.796Z,19.98
2022-10-26T13:41:30.456Z,20.15
2022-10-26T13:43:59.012Z,19.48
2022-10-26T13:46:27.507Z,20.46
2022-10-26T13:49:00.529Z,20.39
2022-10-26T13:51:39.844Z,20.26
2022-10-26T13:54:34.060Z,20.30
2022-10-26T13:57:37.933Z,20.12
2022-10-26T14:00:16.486Z,19.81
2022-10-26T14:02:43.633Z,19.79
2022-10-26T14:05:11.732Z,19.58
2022-10-26T14:07:50.488Z,19.56
2022-10-26T14:10:27.211Z,19.61
2022-10-26T14:12:54.163Z,19.11
2022-10-26T14:15:29.704Z,19.27
2022-10-26T14:17:57.467Z,18.95
2022-10-26T14:20:26.041Z,19.33
2022-10-26T14:22:52.687Z,19.16
2022-10-26T14:25:41.922Z,18.89
2022-10-26T14:28:27.668Z,19.26
2022-10-26T14:30:54.129Z,19.22
2022-10-26T14:33:27.471Z,18.99
2022-10-26T14:35:54.721Z,18.58
2022-10-26T14:38:25.860Z,18.91
2022-10-26T14:40:56.202Z,18.69
2022-10-26T14:43:24.800Z,18.95
2022-10-26T14:45:53.633Z,18.60
2022-10-26T14:48:28.048Z,18.55
2022-10-26T14:51:18.684Z,18.85
2022-10-26T14:53:50.755Z,18.79
2022-10-26T14:56:35.249Z,18.76
2022-10-26T14:59:12.070Z,18.75
2022-10-26T15:01:57.203Z,18.82
2022-10-26T15:04:35.893Z,18.79
2022-10-26T15:07:11.242Z,18.82
2022-10-26T15:09:39.012Z,18.93
2022-10-26T15:12:06.235Z,18.88
2022-10-26T15:14:34.131Z,18.69
2022-10-26T15:17:00.862Z,18.80
2022-10-26T15:19:27.910Z,18.77
2022-10-26T15:21:54.445Z,18.77
2022-10-26T15:24:20.872Z,18.75
2022-10-26T15:26:47.811Z,18.72
2022-10-26T15:29:37.009Z,18.79
2022-10-26T15:34:37.346Z,18.57
2022-10-26T15:37:03.915Z,18.36
2022-10-26T15:39:30.451Z,18.22
2022-10-26T15:41:56.917Z,18.22
2022-10-26T15:44:23.315Z,18.10
2022-10-26T15:46:50.080Z,18.03
2022-10-26T15:49:19.600Z,18.20
2022-10-26T15:51:47.994Z,18.26
2022-10-26T15:54:14.744Z,18.23
2022-10-26T15:56:42.073Z,18.27
2022-10-26T15:59:17.410Z,18.21
2022-10-26T16:01:44.324Z,17.97
2022-10-26T16:04:11.693Z,18.33
2022-10-26T16:06:40.334Z,18.21
2022-10-26T16:09:11.073Z,18.09
2022-10-26T16:11:37.489Z,17.97
2022-10-26T16:14:04.200Z,18.03
2022-10-26T16:16:31.389Z,17.96
2022-10-26T16:19:18.500Z,17.87
2022-10-26T16:21:44.206Z,17.45
2022-10-26T16:24:11.758Z,17.70
2022-10-26T16:26:38.230Z,17.20
2022-10-26T16:29:04.685Z,17.49
2022-10-26T16:31:31.080Z,17.40
2022-10-26T16:34:00.296Z,17.12
2022-10-26T16:36:30.524Z,16.93
2022-10-26T16:38:57.015Z,16.80
2022-10-26T16:43:56.009Z,16.95
2022-10-26T16:46:22.502Z,16.93
2022-10-26T16:48:50.060Z,16.80
2022-10-26T16:51:25.129Z,16.76
2022-10-26T16:53:53.382Z,16.38
2022-10-26T16:56:22.015Z,16.33
2022-10-26T16:58:48.810Z,16.67
2022-10-26T17:01:17.425Z,16.68
2022-10-26T17:03:44.769Z,16.43
2022-10-26T17:06:11.515Z,16.86
2022-10-26T17:08:37.948Z,16.83
2022-10-26T17:11:13.422Z,16.75
2022-10-26T17:13:40.647Z,16.52
2022-10-26T17:16:18.511Z,16.82
2022-10-26T17:18:45.869Z,16.72
2022-10-26T17:21:13.536Z,16.85
2022-10-26T17:23:40.027Z,16.84
2022-10-26T17:26:08.591Z,16.42
2022-10-26T17:28:35.330Z,16.66
2022-10-26T17:31:06.571Z,16.59
2022-10-26T17:33:34.935Z,16.57
2022-10-26T17:36:02.676Z,16.15
2022-10-26T17:38:33.933Z,16.43
2022-10-26T17:41:01.495Z,16.05
2022-10-26T17:43:33.588Z,16.32
2022-10-26T17:46:01.562Z,16.29
2022-10-26T17:48:28.899Z,16.22
2022-10-26T17:50:57.861Z,16.24
2022-10-26T17:53:24.583Z,16.34
2022-10-26T17:55:59.272Z,16.31
2022-10-26T17:58:25.681Z,16.30
2022-10-26T18:00:52.120Z,15.90
2022-10-26T18:03:18.583Z,15.89
2022-10-26T18:05:51.596Z,16.16
2022-10-26T18:08:18.444Z,16.13
2022-10-26T18:10:53.427Z,16.07
2022-10-26T18:13:19.844Z,16.02
2022-10-26T18:15:46.313Z,15.99
2022-10-26T18:18:13.436Z,15.84
2022-10-26T18:20:40.131Z,15.62
2022-10-26T18:23:06.698Z,15.92
2022-10-26T18:25:33.284Z,15.89
2022-10-26T18:27:59.756Z,15.67
2022-10-26T18:30:26.187Z,15.75
2022-10-26T18:32:53.096Z,15.59
2022-10-26T18:35:20.118Z,15.43
2022-10-26T18:37:46.552Z,15.61
2022-10-26T18:40:13.298Z,15.46
2022-10-26T18:42:39.679Z,15.26
2022-10-26T18:45:06.552Z,15.50
2022-10-26T18:47:33.416Z,15.56
2022-10-26T18:49:59.813Z,15.45
2022-10-26T18:52:26.216Z,15.46
2022-10-26T18:54:54.078Z,15.41
2022-10-26T18:57:21.141Z,15.39
2022-10-26T18:59:51.436Z,15.29
2022-10-26T19:02:20.396Z,15.27
2022-10-26T19:04:46.783Z,15.24
2022-10-26T19:07:13.191Z,15.27
2022-10-26T19:09:39.579Z,15.23
2022-10-26T19:12:06.173Z,15.29
2022-10-26T19:14:32.556Z,14.90
2022-10-26T19:16:58.955Z,14.86
2022-10-26T19:19:25.381Z,15.04
2022-10-26T19:21:51.830Z,15.21
2022-10-26T19:24:20.651Z,15.12
2022-10-26T19:26:48.035Z,15.16
2022-10-26T19:29:16.625Z,15.22
2022-10-26T19:31:47.336Z,15.25
2022-10-26T19:34:15.184Z,14.97
2022-10-26T19:36:42.261Z,15.33
2022-10-26T19:39:08.648Z,14.96
2022-10-26T19:41:35.062Z,14.98
2022-10-26T19:44:01.556Z,14.78
2022-10-26T19:46:29.675Z,15.01
2022-10-26T19:48:58.407Z,15.01
2022-10-26T19:51:26.201Z,15.25
2022-10-26T19:53:53.078Z,15.17
2022-10-26T19:56:19.601Z,15.34
2022-10-26T19:58:46.509Z,15.39
2022-10-26T20:01:14.707Z,15.29
2022-10-26T20:03:41.430Z,15.18
2022-10-26T20:06:10.925Z,14.85
2022-10-26T20:08:38.615Z,15.27
2022-10-26T20:11:10.171Z,15.40
2022-10-26T20:13:40.336Z,14.83
2022-10-26T20:16:07.911Z,15.01
2022-10-26T20:18:34.677Z,15.24
2022-10-26T20:21:01.262Z,15.00
2022-10-26T20:23:27.696Z,15.42
2022-10-26T20:25:54.112Z,15.38
2022-10-26T20:28:20.508Z,15.37
2022-10-26T20:30:48.456Z,15.74
2022-10-26T20:33:15.020Z,15.72
2022-10-26T20:35:41.417Z,15.82
2022-10-26T20:38:15.235Z,15.84
2022-10-26T20:40:41.894Z,15.82
2022-10-26T20:43:10.471Z,15.73
2022-10-26T20:45:37.230Z,15.87
2022-10-26T20:48:03.989Z,15.99
2022-10-26T20:50:31.037Z,15.89
2022-10-26T20:53:11.511Z,15.78
2022-10-26T20:55:42.794Z,15.73
2022-10-26T20:58:20.434Z,15.68
2022-10-26T21:01:06.679Z,15.75
2022-10-26T21:03:33.654Z,15.80
2022-10-26T21:06:00.058Z,15.86
2022-10-26T21:08:26.473Z,15.92
2022-10-26T21:10:53.125Z,15.85
2022-10-26T21:13:19.547Z,15.86
2022-10-26T21:15:45.985Z,15.75
2022-10-26T21:18:12.500Z,15.64
2022-10-26T21:20:38.958Z,15.82
2022-10-26T21:23:05.359Z,15.68
2022-10-26T21:25:31.742Z,15.52
2022-10-26T21:27:58.675Z,15.57
2022-10-26T21:30:25.548Z,15.67
2022-10-26T21:32:53.140Z,15.55
2022-10-26T21:35:20.846Z,15.63
2022-10-26T21:37:48.102Z,15.58
2022-10-26T21:40:14.813Z,15.23
2022-10-26T21:42:41.260Z,15.55
2022-10-26T21:45:08.249Z,15.61
2022-10-26T21:47:34.638Z,15.50
2022-10-26T21:50:01.072Z,15.77
2022-10-26T21:52:27.513Z,15.36
2022-10-26T21:54:53.886Z,15.69
2022-10-26T21:57:20.237Z,15.34
2022-10-26T21:59:46.676Z,15.54
2022-10-26T22:02:13.158Z,15.46
2022-10-26T22:04:39.661Z,15.24
2022-10-26T22:07:06.064Z,15.48
2022-10-26T22:09:37.356Z,15.58
2022-10-26T22:12:11.476Z,15.20
2022-10-26T22:14:37.918Z,15.59
2022-10-26T22:17:04.410Z,15.17
2022-10-26T22:19:30.890Z,15.14
2022-10-26T22:21:57.299Z,15.48
2022-10-26T22:24:23.710Z,15.56
2022-10-26T22:26:50.109Z,15.53
2022-10-26T22:29:16.545Z,15.43
2022-10-26T22:31:42.937Z,15.52
2022-10-26T22:34:14.901Z,15.35
2022-10-26T22:36:41.357Z,15.38
2022-10-26T22:39:07.812Z,15.45
2022-10-26T22:41:34.232Z,15.36
2022-10-26T22:44:00.653Z,15.37
2022-10-26T22:46:28.194Z,15.20
2022-10-26T22:48:56.350Z,15.26
2022-10-26T22:51:24.414Z,14.86
2022-10-26T22:53:55.040Z,15.13
2022-10-26T22:56:22.808Z,15.12
2022-10-26T22:58:49.619Z,15.10
2022-10-26T23:01:18.225Z,14.95
2022-10-26T23:03:44.815Z,15.01
2022-10-26T23:06:16.535Z,15.00
2022-10-26T23:08:43.299Z,14.90
2022-10-26T23:11:12.702Z,14.90
2022-10-26T23:13:39.094Z,14.31
2022-10-26T23:16:06.584Z,14.91
2022-10-26T23:18:33.584Z,14.48
2022-10-26T23:21:00.323Z,14.80
2022-10-26T23:23:27.705Z,14.39
2022-10-26T23:25:54.152Z,14.69
2022-10-26T23:28:20.503Z,14.39
2022-10-26T23:30:47.465Z,14.63
2022-10-26T23:33:14.213Z,14.25
2022-10-26T23:35:40.693Z,14.25
2022-10-26T23:40:34.414Z,14.43
2022-10-26T23:43:00.943Z,14.23
2022-10-26T23:45:27.354Z,14.42
2022-10-26T23:47:53.805Z,14.11
2022-10-26T23:50:20.354Z,14.39
2022-10-26T23:52:48.198Z,14.26
2022-10-26T23:55:16.617Z,14.38
2022-10-26T23:57:43.041Z,14.42
